createdAt,value
2022-07-29T00:00:39.383Z,5.75
2022-07-29T00:03:07.092Z,5.00
2022-07-29T00:05:34.977Z,6.18
2022-07-29T00:08:02.781Z,6.22
2022-07-29T00:10:30.342Z,5.78
2022-07-29T00:12:58.170Z,5.85
2022-07-29T00:15:25.812Z,6.40
2022-07-29T00:17:53.344Z,6.20
2022-07-29T00:20:21.489Z,6.03
2022-07-29T00:22:48.942Z,7.03
2022-07-29T00:25:16.436Z,6.30
2022-07-29T00:27:44.338Z,6.72
2022-07-29T00:30:12.247Z,6.57
2022-07-29T00:32:40.113Z,6.53
2022-07-29T00:35:27.150Z,6.10
2022-07-29T00:37:55.542Z,6.68
2022-07-29T00:40:23.803Z,6.80
2022-07-29T00:42:52.875Z,6.35
2022-07-29T00:47:49.351Z,6.45
2022-07-29T00:50:17.036Z,7.43
2022-07-29T00:52:45.226Z,6.97
2022-07-29T00:55:16.833Z,6.75
2022-07-29T00:57:46.158Z,6.70
2022-07-29T01:00:18.901Z,7.28
2022-07-29T01:02:51.294Z,7.00
2022-07-29T01:05:22.056Z,6.97
2022-07-29T01:07:54.862Z,6.93
2022-07-29T01:10:24.902Z,7.70
2022-07-29T01:12:55.811Z,8.13
2022-07-29T01:15:24.214Z,7.32
2022-07-29T01:18:18.200Z,8.27
2022-07-29T01:21:45.784Z,8.02
2022-07-29T01:24:34.497Z,7.90
2022-07-29T01:27:43.038Z,8.50
2022-07-29T01:30:13.833Z,8.00
2022-07-29T01:32:48.682Z,8.02
2022-07-29T01:35:37.491Z,8.63
2022-07-29T01:38:18.642Z,9.20
2022-07-29T01:40:54.842Z,8.30
2022-07-29T01:44:03.901Z,8.40
2022-07-29T01:49:18.193Z,7.15
2022-07-29T01:51:52.817Z,7.63
2022-07-29T01:54:49.993Z,6.93
2022-07-29T01:57:22.035Z,6.93
2022-07-29T01:59:51.485Z,7.43
2022-07-29T02:02:20.734Z,7.63
2022-07-29T02:04:50.730Z,7.15
2022-07-29T02:07:22.943Z,7.60
2022-07-29T02:09:53.893Z,7.13
2022-07-29T02:12:23.058Z,6.75
2022-07-29T02:17:27.365Z,5.90
2022-07-29T02:20:02.823Z,6.35
2022-07-29T02:22:34.701Z,7.18
2022-07-29T02:25:03.715Z,6.50
2022-07-29T02:30:04.083Z,5.90
2022-07-29T02:32:36.456Z,6.45
2022-07-29T02:35:05.536Z,6.90
2022-07-29T02:37:34.781Z,5.60
2022-07-29T02:40:02.880Z,5.85
2022-07-29T02:42:32.206Z,5.80
2022-07-29T02:44:59.949Z,5.20
2022-07-29T02:47:43.951Z,5.00
2022-07-29T02:50:41.889Z,4.88
2022-07-29T02:53:26.266Z,5.13
2022-07-29T02:56:00.658Z,4.10
2022-07-29T02:58:39.992Z,3.97
2022-07-29T03:01:21.853Z,4.45
2022-07-29T03:03:52.845Z,3.55
2022-07-29T03:06:30.890Z,3.97
2022-07-29T03:09:13.032Z,3.78
2022-07-29T03:11:50.380Z,4.00
2022-07-29T03:14:20.962Z,4.18
2022-07-29T03:16:52.021Z,4.28
2022-07-29T03:19:21.412Z,4.13
2022-07-29T03:21:49.242Z,3.35
2022-07-29T03:24:37.444Z,4.63
2022-07-29T03:27:06.548Z,4.20
2022-07-29T03:29:34.890Z,4.28
2022-07-29T03:32:08.193Z,4.55
2022-07-29T03:34:38.601Z,4.28
2022-07-29T03:37:07.481Z,4.75
2022-07-29T03:42:09.833Z,4.53
2022-07-29T03:44:39.915Z,4.70
2022-07-29T03:47:09.793Z,4.50
2022-07-29T03:49:40.040Z,4.40
2022-07-29T03:52:08.573Z,4.38
2022-07-29T03:54:36.473Z,4.57
2022-07-29T03:57:04.667Z,4.50
2022-07-29T03:59:34.863Z,4.85
2022-07-29T04:02:05.306Z,4.20
2022-07-29T04:04:37.244Z,4.97
2022-07-29T04:07:06.306Z,4.72
2022-07-29T04:09:33.927Z,5.22
2022-07-29T04:12:04.100Z,5.00
2022-07-29T04:14:34.597Z,5.47
2022-07-29T04:17:04.422Z,5.07
2022-07-29T04:19:32.870Z,4.97
2022-07-29T04:22:01.498Z,4.47
2022-07-29T04:24:29.037Z,4.47
2022-07-29T04:26:56.705Z,4.13
2022-07-29T04:29:24.404Z,3.90
2022-07-29T04:31:51.973Z,4.75
2022-07-29T04:34:20.199Z,3.80
2022-07-29T04:36:48.313Z,4.15
2022-07-29T04:39:20.682Z,4.78
2022-07-29T04:41:52.531Z,5.47
2022-07-29T04:44:28.746Z,5.40
2022-07-29T04:46:58.351Z,5.57
2022-07-29T04:49:26.663Z,5.22
2022-07-29T04:51:54.519Z,4.60
2022-07-29T04:54:22.547Z,5.63
2022-07-29T04:56:50.033Z,4.68
2022-07-29T04:59:17.553Z,4.65
2022-07-29T05:01:45.312Z,5.25
2022-07-29T05:04:13.198Z,5.32
2022-07-29T05:06:40.911Z,5.00
2022-07-29T05:09:08.726Z,4.38
2022-07-29T05:11:36.237Z,5.45
2022-07-29T05:14:03.759Z,4.43
2022-07-29T05:16:31.508Z,3.95
2022-07-29T05:18:58.991Z,4.55
2022-07-29T05:21:26.485Z,4.10
2022-07-29T05:23:54.192Z,4.32
2022-07-29T05:26:21.673Z,3.55
2022-07-29T05:28:49.237Z,3.33
2022-07-29T05:31:17.479Z,3.70
2022-07-29T05:33:45.096Z,3.57
2022-07-29T05:36:12.804Z,3.45
2022-07-29T05:38:40.555Z,3.25
2022-07-29T05:41:07.973Z,3.28
2022-07-29T05:43:35.433Z,3.30
2022-07-29T05:46:03.459Z,3.60
2022-07-29T05:48:31.013Z,3.42
2022-07-29T05:50:58.488Z,3.50
2022-07-29T05:53:26.157Z,3.75
2022-07-29T05:55:53.835Z,4.15
2022-07-29T05:58:21.456Z,3.47
2022-07-29T06:00:49.398Z,3.80
2022-07-29T06:03:16.997Z,3.13
2022-07-29T06:05:44.435Z,3.80
2022-07-29T06:08:12.170Z,4.53
2022-07-29T06:10:39.687Z,5.15
2022-07-29T06:13:07.238Z,4.18
2022-07-29T06:15:35.078Z,3.97
2022-07-29T06:18:03.109Z,3.60
2022-07-29T06:20:32.666Z,3.72
2022-07-29T06:23:01.449Z,3.20
2022-07-29T06:25:33.354Z,3.63
2022-07-29T06:28:00.844Z,3.67
2022-07-29T06:30:29.865Z,3.35
2022-07-29T06:32:58.710Z,3.67
2022-07-29T06:35:38.313Z,3.10
2022-07-29T06:38:31.415Z,3.80
2022-07-29T06:41:03.168Z,4.00
2022-07-29T06:43:51.773Z,4.13
2022-07-29T06:46:22.279Z,3.33
2022-07-29T06:48:51.698Z,3.42
2022-07-29T06:51:22.359Z,3.72
2022-07-29T06:54:00.195Z,3.13
2022-07-29T06:56:39.932Z,3.70
2022-07-29T06:59:10.005Z,3.65
2022-07-29T07:01:43.061Z,3.42
2022-07-29T07:04:11.944Z,3.72
2022-07-29T07:06:40.677Z,3.70
2022-07-29T07:09:08.421Z,3.20
2022-07-29T07:11:36.471Z,4.07
2022-07-29T07:14:04.469Z,3.47
2022-07-29T07:16:33.158Z,3.85
2022-07-29T07:19:01.752Z,3.92
2022-07-29T07:21:30.660Z,3.38
2022-07-29T07:24:00.164Z,3.45
2022-07-29T07:26:28.723Z,3.17
2022-07-29T07:28:56.371Z,3.72
2022-07-29T07:31:24.072Z,3.40
2022-07-29T07:33:53.111Z,3.53
2022-07-29T07:36:20.896Z,3.83
2022-07-29T07:38:48.358Z,3.17
2022-07-29T07:41:16.417Z,3.80
2022-07-29T07:43:44.005Z,4.13
2022-07-29T07:46:11.526Z,4.15
2022-07-29T07:48:39.414Z,3.33
2022-07-29T07:51:08.280Z,3.40
2022-07-29T07:53:36.168Z,3.58
2022-07-29T07:56:11.060Z,4.38
2022-07-29T07:58:39.685Z,3.97
2022-07-29T08:01:07.853Z,3.83
2022-07-29T08:03:36.119Z,3.87
2022-07-29T08:06:05.158Z,3.60
2022-07-29T08:08:33.091Z,3.67
2022-07-29T08:11:08.331Z,3.40
2022-07-29T08:13:38.753Z,3.88
2022-07-29T08:16:14.199Z,3.78
2022-07-29T08:18:44.235Z,3.60
2022-07-29T08:21:14.924Z,4.13
2022-07-29T08:23:59.917Z,4.13
2022-07-29T08:26:28.665Z,4.00
2022-07-29T08:28:56.536Z,4.55
2022-07-29T08:31:24.513Z,4.25
2022-07-29T08:33:52.118Z,4.15
2022-07-29T08:36:21.953Z,4.05
2022-07-29T08:38:50.607Z,3.70
2022-07-29T08:41:20.417Z,3.45
2022-07-29T08:43:50.056Z,4.15
2022-07-29T08:46:18.528Z,3.70
2022-07-29T08:48:46.716Z,4.43
2022-07-29T08:51:18.245Z,4.30
2022-07-29T08:53:51.304Z,3.75
2022-07-29T08:56:20.627Z,4.90
2022-07-29T08:58:51.774Z,4.72
2022-07-29T09:01:36.225Z,4.40
2022-07-29T09:04:13.306Z,4.13
2022-07-29T09:06:46.428Z,4.40
2022-07-29T09:09:16.119Z,5.50
2022-07-29T09:11:44.069Z,4.18
2022-07-29T09:14:14.448Z,4.60
2022-07-29T09:16:54.376Z,4.25
2022-07-29T09:19:38.278Z,4.95
2022-07-29T09:22:13.151Z,4.78
2022-07-29T09:24:48.577Z,5.22
2022-07-29T09:27:24.586Z,5.25
2022-07-29T09:30:07.042Z,5.00
2022-07-29T09:32:54.634Z,5.68
2022-07-29T09:35:26.172Z,4.45
2022-07-29T09:37:54.490Z,4.65
2022-07-29T09:40:26.109Z,4.97
2022-07-29T09:42:57.873Z,4.88
2022-07-29T09:45:34.631Z,4.45
2022-07-29T09:48:24.144Z,4.25
2022-07-29T09:50:53.486Z,5.28
2022-07-29T09:53:39.006Z,4.72
2022-07-29T09:56:06.970Z,4.28
2022-07-29T09:58:35.633Z,4.50
2022-07-29T10:01:04.962Z,5.18
2022-07-29T10:03:32.671Z,4.43
2022-07-29T10:06:10.048Z,4.93
2022-07-29T10:08:39.122Z,4.57
2022-07-29T10:11:18.664Z,4.47
2022-07-29T10:13:49.165Z,5.07
2022-07-29T10:16:18.907Z,4.13
2022-07-29T10:18:47.903Z,4.70
2022-07-29T10:21:22.519Z,4.93
2022-07-29T10:24:03.204Z,4.20
2022-07-29T10:26:32.301Z,4.72
2022-07-29T10:29:00.743Z,4.13
2022-07-29T10:34:29.450Z,5.22
2022-07-29T10:37:46.062Z,4.25
2022-07-29T10:41:03.721Z,4.90
2022-07-29T10:43:42.473Z,5.35
2022-07-29T10:46:11.639Z,5.43
2022-07-29T10:49:12.735Z,5.25
2022-07-29T10:51:57.446Z,6.13
2022-07-29T10:54:48.812Z,4.82
2022-07-29T10:57:25.971Z,5.65
2022-07-29T11:00:16.827Z,5.75
2022-07-29T11:02:50.255Z,5.47
2022-07-29T11:05:20.736Z,5.68
2022-07-29T11:08:20.297Z,5.50
2022-07-29T11:11:22.288Z,5.63
2022-07-29T11:13:52.549Z,5.32
2022-07-29T11:16:25.225Z,5.25
2022-07-29T11:19:13.131Z,6.22
2022-07-29T11:21:55.376Z,4.70
2022-07-29T11:24:32.155Z,4.97
2022-07-29T11:30:06.577Z,5.38
2022-07-29T11:32:44.807Z,5.47
2022-07-29T11:35:37.696Z,5.82
2022-07-29T11:38:37.062Z,5.82
2022-07-29T11:41:30.188Z,5.85
2022-07-29T11:44:01.469Z,5.18
2022-07-29T11:46:50.756Z,5.22
2022-07-29T11:49:32.895Z,5.03
2022-07-29T11:52:04.708Z,4.80
2022-07-29T11:54:52.495Z,5.90
2022-07-29T11:57:36.456Z,5.95
2022-07-29T12:00:12.427Z,5.07
2022-07-29T12:02:48.263Z,5.57
2022-07-29T12:05:35.849Z,5.20
2022-07-29T12:08:20.833Z,5.47
2022-07-29T12:10:51.681Z,5.15
2022-07-29T12:13:22.222Z,5.13
2022-07-29T12:15:55.535Z,4.93
2022-07-29T12:18:24.053Z,4.90
2022-07-29T12:21:04.583Z,4.50
2022-07-29T12:23:34.356Z,5.32
2022-07-29T12:26:10.922Z,5.00
2022-07-29T12:28:50.338Z,5.75
2022-07-29T12:31:42.861Z,4.50
2022-07-29T12:34:06.470Z,5.35
2022-07-29T12:36:34.043Z,5.40
2022-07-29T12:39:01.762Z,5.47
2022-07-29T12:41:30.872Z,5.65
2022-07-29T12:43:58.454Z,5.38
2022-07-29T12:46:25.979Z,6.37
2022-07-29T12:48:58.447Z,5.97
2022-07-29T12:51:37.697Z,6.43
2022-07-29T12:54:14.971Z,5.20
2022-07-29T12:56:46.114Z,5.53
2022-07-29T12:59:19.717Z,4.95
2022-07-29T13:01:50.261Z,5.80
2022-07-29T13:04:32.418Z,5.78
2022-07-29T13:07:10.563Z,5.95
2022-07-29T13:09:49.504Z,5.95
2022-07-29T13:12:17.010Z,6.03
2022-07-29T13:14:51.720Z,6.25
2022-07-29T13:17:23.836Z,6.53
2022-07-29T13:20:05.278Z,5.82
2022-07-29T13:22:36.975Z,5.25
2022-07-29T13:25:07.510Z,5.97
2022-07-29T13:27:38.683Z,6.00
2022-07-29T13:30:10.766Z,5.53
2022-07-29T13:32:38.722Z,6.15
2022-07-29T13:35:09.314Z,5.70
2022-07-29T13:37:39.563Z,5.50
2022-07-29T13:40:10.472Z,5.07
2022-07-29T13:42:38.139Z,5.40
2022-07-29T13:45:07.726Z,6.28
2022-07-29T13:47:35.658Z,5.13
2022-07-29T13:50:08.779Z,5.13
2022-07-29T13:52:37.184Z,5.88
2022-07-29T13:55:05.997Z,5.65
2022-07-29T13:57:33.625Z,6.18
2022-07-29T14:00:01.428Z,5.90
2022-07-29T14:02:35.945Z,5.72
2022-07-29T14:05:08.392Z,6.32
2022-07-29T14:07:37.169Z,5.85
2022-07-29T14:10:05.890Z,6.35
2022-07-29T14:12:33.706Z,6.47
2022-07-29T14:15:01.246Z,5.70
2022-07-29T14:17:29.005Z,6.57
2022-07-29T14:19:56.520Z,6.87
2022-07-29T14:22:25.566Z,5.88
2022-07-29T14:24:53.588Z,6.85
2022-07-29T14:27:37.720Z,6.50
2022-07-29T14:30:07.979Z,5.55
2022-07-29T14:32:35.491Z,5.13
2022-07-29T14:35:03.009Z,6.38
2022-07-29T14:37:39.051Z,6.10
2022-07-29T14:40:10.319Z,7.37
2022-07-29T14:42:38.717Z,5.78
2022-07-29T14:45:08.759Z,6.75
2022-07-29T14:47:37.099Z,6.43
2022-07-29T14:50:07.023Z,6.72
2022-07-29T14:52:34.961Z,5.93
2022-07-29T14:55:03.778Z,6.30
2022-07-29T14:57:31.762Z,5.95
2022-07-29T14:59:59.488Z,6.05
2022-07-29T15:02:45.832Z,5.82
2022-07-29T15:05:14.927Z,6.50
2022-07-29T15:07:42.436Z,6.37
2022-07-29T15:10:10.731Z,6.50
2022-07-29T15:12:42.478Z,5.55
2022-07-29T15:15:10.944Z,5.10
2022-07-29T15:17:38.698Z,5.50
2022-07-29T15:22:34.458Z,5.60
2022-07-29T15:25:01.973Z,5.85
2022-07-29T15:27:29.810Z,6.00
2022-07-29T15:29:57.589Z,6.63
2022-07-29T15:32:25.145Z,5.35
2022-07-29T15:34:52.928Z,6.05
2022-07-29T15:37:20.619Z,5.28
2022-07-29T15:39:48.134Z,5.93
2022-07-29T15:42:15.968Z,6.13
2022-07-29T15:44:45.538Z,5.72
2022-07-29T15:47:13.036Z,5.70
2022-07-29T15:49:47.763Z,6.13
2022-07-29T15:52:25.940Z,5.72
2022-07-29T15:54:57.969Z,6.20
2022-07-29T15:57:26.134Z,5.57
2022-07-29T16:02:21.493Z,5.25
2022-07-29T16:04:49.252Z,5.93
2022-07-29T16:07:16.992Z,6.28
2022-07-29T16:09:50.839Z,6.05
2022-07-29T16:12:20.667Z,5.93
2022-07-29T16:14:50.911Z,6.53
2022-07-29T16:17:19.426Z,6.25
2022-07-29T16:19:47.311Z,5.63
2022-07-29T16:22:15.149Z,6.05
2022-07-29T16:24:42.810Z,5.30
2022-07-29T16:27:10.409Z,5.80
2022-07-29T16:29:38.185Z,5.40
2022-07-29T16:32:06.872Z,5.38
2022-07-29T16:34:34.593Z,5.50
2022-07-29T16:37:02.716Z,5.65
2022-07-29T16:39:30.442Z,5.57
2022-07-29T16:42:00.840Z,6.15
2022-07-29T16:44:30.178Z,5.65
2022-07-29T16:46:59.981Z,6.30
2022-07-29T16:49:28.620Z,5.53
2022-07-29T16:51:56.452Z,6.28
2022-07-29T16:54:23.949Z,6.33
2022-07-29T16:56:51.418Z,6.57
2022-07-29T16:59:19.148Z,6.68
2022-07-29T17:01:46.900Z,6.30
2022-07-29T17:04:15.140Z,6.22
2022-07-29T17:06:43.357Z,6.68
2022-07-29T17:09:15.157Z,6.07
2022-07-29T17:11:51.905Z,6.72
2022-07-29T17:14:31.143Z,6.22
2022-07-29T17:17:02.310Z,6.97
2022-07-29T17:19:34.222Z,7.80
2022-07-29T17:22:10.580Z,6.38
2022-07-29T17:24:41.258Z,7.07
2022-07-29T17:29:39.074Z,7.50
2022-07-29T17:32:09.090Z,6.45
2022-07-29T17:34:42.114Z,7.72
2022-07-29T17:37:12.047Z,8.05
2022-07-29T17:39:41.464Z,7.68
2022-07-29T17:42:14.425Z,7.90
2022-07-29T17:44:42.310Z,7.18
2022-07-29T17:47:16.041Z,7.47
2022-07-29T17:49:45.574Z,7.90
2022-07-29T17:52:13.225Z,8.25
2022-07-29T17:54:40.714Z,7.77
2022-07-29T17:57:08.762Z,8.30
2022-07-29T17:59:36.864Z,8.90
2022-07-29T18:02:04.418Z,8.60
2022-07-29T18:04:32.239Z,7.78
2022-07-29T18:07:00.217Z,8.00
2022-07-29T18:09:28.085Z,9.18
2022-07-29T18:11:56.078Z,8.47
2022-07-29T18:14:23.636Z,8.13
2022-07-29T18:16:51.203Z,9.55
2022-07-29T18:19:19.035Z,9.25
2022-07-29T18:21:54.063Z,11.48
2022-07-29T18:24:25.808Z,30.52
2022-07-29T18:26:53.977Z,10.65
2022-07-29T18:29:21.632Z,11.10
2022-07-29T18:31:49.620Z,12.77
2022-07-29T18:34:17.223Z,12.07
2022-07-29T18:36:45.907Z,14.60
2022-07-29T18:39:20.323Z,11.68
2022-07-29T18:41:51.401Z,11.32
2022-07-29T18:44:22.041Z,12.95
2022-07-29T18:46:52.105Z,17.35
2022-07-29T18:49:20.433Z,35.33
2022-07-29T18:51:49.047Z,25.57
2022-07-29T18:54:27.548Z,19.73
2022-07-29T18:56:55.848Z,16.55
2022-07-29T18:59:23.580Z,18.97
2022-07-29T19:01:51.350Z,21.33
2022-07-29T19:04:19.614Z,13.63
2022-07-29T19:06:47.291Z,13.07
2022-07-29T19:09:15.190Z,12.87
2022-07-29T19:11:43.263Z,12.53
2022-07-29T19:14:10.848Z,11.95
2022-07-29T19:16:38.564Z,14.23
2022-07-29T19:19:07.451Z,16.27
2022-07-29T19:21:35.025Z,19.92
2022-07-29T19:24:06.650Z,13.15
2022-07-29T19:26:38.615Z,12.15
2022-07-29T19:29:06.310Z,11.32
2022-07-29T19:31:33.983Z,11.77
2022-07-29T19:34:01.847Z,11.07
2022-07-29T19:36:30.625Z,11.38
2022-07-29T19:38:58.280Z,11.77
2022-07-29T19:41:26.513Z,12.48
2022-07-29T19:43:54.749Z,10.97
2022-07-29T19:46:23.593Z,11.63
2022-07-29T19:48:53.557Z,11.50
2022-07-29T19:51:22.718Z,11.82
2022-07-29T19:53:51.479Z,11.50
2022-07-29T19:56:19.328Z,10.68
2022-07-29T19:58:46.940Z,10.98
2022-07-29T20:01:16.711Z,10.32
2022-07-29T20:03:45.038Z,19.33
2022-07-29T20:06:13.530Z,15.90
2022-07-29T20:08:41.176Z,12.30
2022-07-29T20:11:09.184Z,10.38
2022-07-29T20:13:36.862Z,9.82
2022-07-29T20:16:06.511Z,9.90
2022-07-29T20:18:35.302Z,10.35
2022-07-29T20:21:04.996Z,10.38
2022-07-29T20:23:33.441Z,9.45
2022-07-29T20:26:02.858Z,9.15
2022-07-29T20:28:31.158Z,12.23
2022-07-29T20:30:58.679Z,10.50
2022-07-29T20:33:26.498Z,10.23
2022-07-29T20:35:54.055Z,12.68
2022-07-29T20:38:21.711Z,10.82
2022-07-29T20:40:50.769Z,11.35
2022-07-29T20:43:18.230Z,12.48
2022-07-29T20:45:45.970Z,12.35
2022-07-29T20:48:13.956Z,11.30
2022-07-29T20:50:42.844Z,12.32
2022-07-29T20:55:38.572Z,11.77
2022-07-29T20:58:06.076Z,11.05
2022-07-29T21:00:33.557Z,11.00
2022-07-29T21:03:01.367Z,21.48
2022-07-29T21:05:28.933Z,12.65
2022-07-29T21:07:58.234Z,11.35
2022-07-29T21:10:26.382Z,11.57
2022-07-29T21:12:54.242Z,9.70
2022-07-29T21:15:22.175Z,10.68
2022-07-29T21:17:52.441Z,9.73
2022-07-29T21:20:20.704Z,9.93
2022-07-29T21:22:48.196Z,9.98
2022-07-29T21:25:16.005Z,9.35
2022-07-29T21:28:02.158Z,10.73
2022-07-29T21:30:29.888Z,10.20
2022-07-29T21:32:57.774Z,9.80
2022-07-29T21:36:01.887Z,10.17
2022-07-29T21:38:13.378Z,9.07
2022-07-29T21:40:40.824Z,9.07
2022-07-29T21:43:08.457Z,9.02
2022-07-29T21:45:37.783Z,7.97
2022-07-29T21:48:06.664Z,8.65
2022-07-29T21:55:31.847Z,8.90
2022-07-29T21:58:00.056Z,8.02
2022-07-29T22:00:28.773Z,7.85
2022-07-29T22:02:56.293Z,8.07
2022-07-29T22:05:24.148Z,7.75
2022-07-29T22:07:54.487Z,8.52
2022-07-29T22:10:27.287Z,8.30
2022-07-29T22:12:57.514Z,8.40
2022-07-29T22:15:27.900Z,9.18
2022-07-29T22:17:55.992Z,9.15
2022-07-29T22:20:24.445Z,10.20
2022-07-29T22:22:52.038Z,13.27
2022-07-29T22:25:20.100Z,13.05
2022-07-29T22:27:47.646Z,11.93
2022-07-29T22:30:15.849Z,13.35
2022-07-29T22:32:43.617Z,13.02
2022-07-29T22:35:11.463Z,13.75
2022-07-29T22:37:39.373Z,13.13
2022-07-29T22:40:08.040Z,13.68
2022-07-29T22:42:35.827Z,12.88
2022-07-29T22:45:10.533Z,13.35
2022-07-29T22:47:48.375Z,14.15
2022-07-29T22:50:17.364Z,13.25
2022-07-29T22:52:46.950Z,13.18
2022-07-29T22:55:15.363Z,12.68
2022-07-29T22:57:43.281Z,11.45
2022-07-29T23:00:12.423Z,10.98
2022-07-29T23:02:41.419Z,10.73
2022-07-29T23:05:10.552Z,10.43
2022-07-29T23:10:06.789Z,10.60
2022-07-29T23:12:35.140Z,10.40
2022-07-29T23:15:02.619Z,10.23
2022-07-29T23:17:36.602Z,9.95
2022-07-29T23:20:09.802Z,10.13
2022-07-29T23:22:37.573Z,9.95
2022-07-29T23:25:06.384Z,10.05
2022-07-29T23:27:34.216Z,9.98
2022-07-29T23:30:02.534Z,9.68
2022-07-29T23:32:30.155Z,9.80
2022-07-29T23:34:57.881Z,10.77
2022-07-29T23:37:26.875Z,10.13
2022-07-29T23:39:54.690Z,9.98
2022-07-29T23:42:22.832Z,12.03
2022-07-29T23:44:50.383Z,11.43
2022-07-29T23:47:17.999Z,11.13
2022-07-29T23:49:46.516Z,11.15
2022-07-29T23:52:14.006Z,15.88
2022-07-29T23:54:41.502Z,12.40
2022-07-29T23:57:09.352Z,10.77
2022-07-29T23:59:36.784Z,10.98
